オークランド の空港の天気 - METARとTAF

オークランド国際空港 ( NZAA / AKL ) - ニュージーランド オークランド|オークランド
飛行場実況気象(Metar)
観測時間01/20 14:00 NZDT (01/20 01:00 UTC)
風向・風速南西 8m/s
視程10km以上
天気現象
少しの雲 雲底高度 1220m
気温20℃
湿度53%
気圧1008hPa
METARNZAA 200100Z AUTO 23016KT 9999 FEW040/// 20/10 Q1008 NOSIG
過去の天気等 Google飛行場航空写真 Wunderground天気予報

過去48時間のMETAR

飛行場予報(TAF)
発表時間: 1/20 12:13 NZDT (1/19 23:13 UTC)
予報対象時間: 20日13時 NZDT ~ 21日13時 NZDT
風向・風速西南西 9m/s 瞬間風速 15m/s
視程10km以上
全天の8割程度の雲 雲底高度 1,070m
20日17時 NZDT ~ 20日19時 NZDT に徐々に
風向・風速西南西 5m/s
20日22時 NZDT ~ 20日24時 NZDT に徐々に
風向・風速不定 1m/s
21日9時 NZDT ~ 21日11時 NZDT に徐々に
風向・風速北東 5m/s
TAF NZAA 192313Z 2000/2100 24018G30KT 9999 BKN035
BECMG 2004/2006 24010KT
BECMG 2009/2011 VRB02KT
BECMG 2020/2022 04010KT